Tuesday, October 17, 2017, 2:46 PM EDT
Back to Local

KIPT, Williamsport-lycoming County

Location: Montoursville, PA, United States Lat: 41.25
Local Time: 2:46 PM EDT (18:46 GMT) Lon: -76.917
Time Zone: US/Eastern Elev: 528 ft

Show me the last for .
Show Decoded

2017-10-17 13:54 METAR KIPT 171754Z 13003KT 10SM CLR 14/03 A3027 RMK AO2 SLP252 T01440028 10150
                 20022 58027 =
2017-10-17 12:54 METAR KIPT 171654Z VRB03KT 10SM CLR 12/03 A3031 RMK AO2 SLP265 T01220033 =
2017-10-17 11:54 METAR KIPT 171554Z 00000KT 10SM CLR 11/03 A3034 RMK AO2 SLP275 T01060028 =
2017-10-17 10:54 METAR KIPT 171454Z 00000KT 10SM CLR 09/03 A3035 RMK AO2 SLP280 T00890033 50000 =
2017-10-17 09:54 METAR KIPT 171354Z 00000KT 10SM CLR 06/03 A3037 RMK AO2 SLP286 T00610033 =
2017-10-17 09:28 METAR KIPT 171328Z 23004KT 10SM SCT006 05/03 A3037 RMK AO2 T00500028 =
2017-10-17 08:54 METAR KIPT 171254Z 30004KT 10SM OVC006 04/02 A3037 RMK AO2 SLP288 T00390022 =
2017-10-17 07:54 METAR KIPT 171154Z 00000KT 10SM OVC006 02/01 A3035 RMK AO2 SLP281 T00220006
                 10039 20011 53005 =
2017-10-17 07:11 METAR KIPT 171111Z 00000KT 10SM BKN006 02/00 A3034 RMK AO2 T00170000 =
2017-10-17 06:54 METAR KIPT 171054Z 00000KT 10SM SCT006 02/01 A3034 RMK AO2 SLP277 T00170006 =
2017-10-17 06:50 METAR KIPT 171050Z 00000KT 10SM SCT006 02/01 A3034 RMK AO2 =
2017-10-17 05:54 METAR KIPT 170954Z AUTO 00000KT 10SM CLR 02/01 A3033 RMK AO2 SLP275 T00170006 =
2017-10-17 04:54 METAR KIPT 170854Z AUTO 00000KT 10SM CLR 02/01 A3032 RMK AO2 SLP268 T00220011
                 53011 =
2017-10-17 03:54 METAR KIPT 170754Z AUTO 36003KT 10SM CLR 02/01 A3030 RMK AO2 SLP261 T00220011 =
2017-10-17 02:54 METAR KIPT 170654Z AUTO 33003KT 10SM CLR 03/02 A3028 RMK AO2 SLP257 T00330017 =
2017-10-17 01:54 METAR KIPT 170554Z AUTO 31003KT 10SM CLR 04/02 A3028 RMK AO2 SLP257 T00390017
                 10106 20039 53006 =
2017-10-17 00:54 METAR KIPT 170454Z AUTO 34004KT 10SM CLR 04/02 A3027 RMK AO2 SLP253 T00390017
                 401780039 =
2017-10-16 23:54 METAR KIPT 170354Z AUTO 00000KT 10SM CLR 06/02 A3027 RMK AO2 SLP253 T00610017 =
2017-10-16 22:54 METAR KIPT 170254Z AUTO 34003KT 10SM CLR 07/01 A3027 RMK AO2 SLP251 T00720006
                 51023 =
2017-10-16 21:54 METAR KIPT 170154Z 29005KT 10SM CLR 08/M01 A3025 RMK AO2 SLP246 T00831006 =
2017-10-16 20:54 METAR KIPT 170054Z 32006KT 10SM CLR 10/M01 A3022 RMK AO2 SLP235 T01001006 =
2017-10-16 19:54 METAR KIPT 162354Z 33004KT 10SM CLR 11/M01 A3020 RMK AO2 SLP226 T01061006 10172
                 20106 53029 =
2017-10-16 18:54 METAR KIPT 162254Z 32005KT 10SM CLR 12/M01 A3016 RMK AO2 SLP213 T01171011 =
2017-10-16 17:54 METAR KIPT 162154Z 29010KT 10SM CLR 14/M02 A3013 RMK AO2 SLP202 T01391022 =
2017-10-16 16:54 METAR KIPT 162054Z 33010KT 10SM FEW075 16/M02 A3011 RMK AO2 SLP195 T01611017
                 53002 =
2017-10-16 15:54 METAR KIPT 161954Z 32010G19KT 10SM SCT070 16/M01 A3009 RMK AO2 SLP189 T01611006
                 =
2017-10-16 14:54 METAR KIPT 161854Z 34009G17KT 10SM FEW060 16/01 A3009 RMK AO2 SLP188 T01610006 =

Support USWX by starting your Amazon purchase here.